Terminal Aerodrome Forecast
Issued by NWS

Home | Current Version | Previous Version | Text Only | Print | Product List | Glossary On
Versions: 1 2 3 4 5 6 7 8 9 10 11 12 13 14
000
FTUS45 KRIW 290531
TAFCPR
TAF
KCPR 290531Z 2906/3006 36008KT P6SM SCT100
     FM290900 25008KT P6SM FEW100
     FM291800 32010KT P6SM SCT100
     FM292100 34010G15KT P6SM VCTS SCT060CB BKN080
     FM300000 02014G20KT P6SM VCTS SCT030CB BKN050
     FM300400 03011KT P6SM VCSH SCT025 BKN040=

USA.gov is the U.S. government's official web portal to all federal, state and local government web resources and services.